Time;durP1;ratioP1;P1;durP2;ratioP2;P2;SDS_P1;SDS_P2;PMS_P1;PMS_P2;Temp;Humidity;BMP_temperature;BMP_pressure;BME280_temperature;BME280_humidity;BME280_pressure;Samples;Min_cycle;Max_cycle;Signal;HPM_P1;HPM_P2
2022/02/11 02:57:05;;;;;;;15.03;7.30;;;;;;;;;;6217621;22;1472970;-90
2022/02/11 03:00:53;;;;;;;14.67;6.67;;;;;;;;;;6236697;23;20171;-91
2022/02/11 03:34:47;;;;;;;14.83;7.23;;;;;;;;;;6231203;23;20218;-89
2022/02/11 03:51:49;;;;;;;15.67;7.27;;;;;;;;;;6232814;23;20171;-90
2022/02/11 03:55:47;;;;;;;17.63;8.20;;;;;;;;;;6231563;23;20178;-90
2022/02/11 04:23:07;;;;;;;21.90;11.07;;;;;;;;;;6202960;23;20190;-90
2022/02/11 04:56:48;;;;;;;28.83;11.97;;;;;;;;;;6155366;23;20218;-89
2022/02/11 04:59:53;;;;;;;26.83;11.37;;;;;;;;;;6229613;23;20155;-91
2022/02/11 05:02:59;;;;;;;26.13;11.07;;;;;;;;;;6233066;23;20186;-90
2022/02/11 05:06:05;;;;;;;21.33;11.43;;;;;;;;;;6230813;23;20179;-89
2022/02/11 05:09:10;;;;;;;21.53;11.03;;;;;;;;;;6230387;23;20175;-90
2022/02/11 05:12:17;;;;;;;26.17;10.87;;;;;;;;;;6231461;23;20175;-89
2022/02/11 05:15:27;;;;;;;26.10;10.30;;;;;;;;;;6229775;23;20195;-89
2022/02/11 05:18:33;;;;;;;18.87;10.13;;;;;;;;;;6230641;23;20166;-90
2022/02/11 05:21:39;;;;;;;29.97;10.97;;;;;;;;;;6232407;23;20622;-91
2022/02/11 05:24:44;;;;;;;27.13;11.17;;;;;;;;;;6230926;23;20167;-89
2022/02/11 05:27:51;;;;;;;26.07;10.97;;;;;;;;;;6231327;23;20220;-90
2022/02/11 05:30:56;;;;;;;29.67;11.40;;;;;;;;;;6228977;23;20167;-91
2022/02/11 05:34:02;;;;;;;24.73;11.10;;;;;;;;;;6232187;23;20182;-90
2022/02/11 05:37:07;;;;;;;20.03;10.40;;;;;;;;;;6231107;23;20171;-91
2022/02/11 05:40:13;;;;;;;24.87;11.57;;;;;;;;;;6231011;23;20192;-90
2022/02/11 05:43:20;;;;;;;19.80;10.77;;;;;;;;;;6233780;23;20187;-89
2022/02/11 05:46:27;;;;;;;21.90;10.33;;;;;;;;;;6229643;23;20175;-89
2022/02/11 05:49:33;;;;;;;22.73;11.47;;;;;;;;;;6231493;23;20218;-89
2022/02/11 05:52:39;;;;;;;24.27;11.57;;;;;;;;;;6229552;23;20175;-90
2022/02/11 05:55:45;;;;;;;30.20;11.50;;;;;;;;;;6231139;23;20170;-89
2022/02/11 05:58:52;;;;;;;27.67;11.87;;;;;;;;;;6227958;23;20290;-91
2022/02/11 06:01:58;;;;;;;27.20;12.70;;;;;;;;;;6232091;23;20152;-89
2022/02/11 06:05:09;;;;;;;26.37;11.77;;;;;;;;;;6234058;23;20182;-89
2022/02/11 06:08:14;;;;;;;23.60;11.27;;;;;;;;;;6231775;23;20171;-90
2022/02/11 06:11:20;;;;;;;23.73;12.00;;;;;;;;;;6231476;23;20175;-90
2022/02/11 06:14:30;;;;;;;25.53;11.40;;;;;;;;;;6231042;23;20191;-90
2022/02/11 06:17:44;;;;;;;31.50;13.93;;;;;;;;;;6232723;23;20175;-91
2022/02/11 06:20:50;;;;;;;27.47;12.37;;;;;;;;;;6231879;23;20216;-89
2022/02/11 06:23:56;;;;;;;27.07;13.47;;;;;;;;;;6230794;23;20170;-89
2022/02/11 06:27:01;;;;;;;29.90;13.30;;;;;;;;;;6230765;23;20167;-90
2022/02/11 06:30:07;;;;;;;28.73;14.17;;;;;;;;;;6230608;23;20222;-91
2022/02/11 06:33:14;;;;;;;28.33;12.40;;;;;;;;;;6231400;23;20263;-88
2022/02/11 06:36:20;;;;;;;24.70;12.37;;;;;;;;;;6233818;23;20166;-88
2022/02/11 06:39:26;;;;;;;28.60;12.57;;;;;;;;;;6231889;23;20167;-90
2022/02/11 06:42:31;;;;;;;28.07;13.13;;;;;;;;;;6234771;23;20611;-89
2022/02/11 06:45:37;;;;;;;31.07;12.63;;;;;;;;;;6231416;23;20221;-90
2022/02/11 06:48:45;;;;;;;24.57;12.40;;;;;;;;;;6234525;23;20575;-92
2022/02/11 06:51:52;;;;;;;28.77;13.90;;;;;;;;;;6231846;23;20159;-90
2022/02/11 06:55:00;;;;;;;32.67;14.30;;;;;;;;;;6231798;23;20191;-89
2022/02/11 06:58:06;;;;;;;33.07;15.30;;;;;;;;;;6231154;23;20242;-88
2022/02/11 07:01:11;;;;;;;30.73;15.73;;;;;;;;;;6234258;23;20171;-89
2022/02/11 07:04:19;;;;;;;32.60;13.73;;;;;;;;;;6235076;23;20187;-89
2022/02/11 07:07:24;;;;;;;43.13;20.13;;;;;;;;;;6235743;23;20163;-90
2022/02/11 07:10:30;;;;;;;36.37;16.80;;;;;;;;;;6235093;23;20240;-90
2022/02/11 07:13:35;;;;;;;29.87;14.57;;;;;;;;;;6235733;23;20212;-90
2022/02/11 07:16:56;;;;;;;29.13;14.00;;;;;;;;;;6233136;23;20224;-91
2022/02/11 07:20:02;;;;;;;33.37;13.60;;;;;;;;;;6233172;23;20634;-90
2022/02/11 07:23:08;;;;;;;24.37;12.10;;;;;;;;;;6229595;23;20167;-89
2022/02/11 07:26:13;;;;;;;30.17;12.50;;;;;;;;;;6232635;23;20175;-88
2022/02/11 07:29:18;;;;;;;29.27;12.27;;;;;;;;;;6233407;23;20210;-92
2022/02/11 07:32:25;;;;;;;33.93;13.10;;;;;;;;;;6233694;23;20240;-89
2022/02/11 07:35:31;;;;;;;30.93;12.53;;;;;;;;;;6232478;23;20179;-88
2022/02/11 07:38:37;;;;;;;29.70;12.80;;;;;;;;;;6232818;23;20160;-88
2022/02/11 07:41:42;;;;;;;27.93;12.63;;;;;;;;;;6233056;23;20167;-88
2022/02/11 07:44:49;;;;;;;25.53;11.73;;;;;;;;;;6235764;23;20832;-90
2022/02/11 07:47:55;;;;;;;29.60;11.10;;;;;;;;;;6232474;23;20699;-90
2022/02/11 07:51:11;;;;;;;27.30;12.30;;;;;;;;;;6230969;23;20175;-91
2022/02/11 07:54:16;;;;;;;28.20;12.17;;;;;;;;;;6231484;23;20186;-88
2022/02/11 07:57:21;;;;;;;22.27;10.67;;;;;;;;;;6231051;23;20206;-90
2022/02/11 08:00:26;;;;;;;27.50;11.60;;;;;;;;;;6231857;23;20215;-89
2022/02/11 08:03:32;;;;;;;25.27;10.73;;;;;;;;;;6233987;23;20460;-90
2022/02/11 08:06:41;;;;;;;19.87;10.13;;;;;;;;;;6231068;23;20171;-89
2022/02/11 08:09:46;;;;;;;23.57;9.90;;;;;;;;;;6235322;23;20166;-90
2022/02/11 08:12:52;;;;;;;18.37;8.67;;;;;;;;;;6234041;23;20171;-88
2022/02/11 08:15:58;;;;;;;18.00;8.13;;;;;;;;;;6231520;23;20202;-88
2022/02/11 08:19:03;;;;;;;19.00;8.37;;;;;;;;;;6233624;23;20684;-87
2022/02/11 08:22:10;;;;;;;17.23;7.60;;;;;;;;;;6231126;23;20152;-90
2022/02/11 08:25:19;;;;;;;13.73;7.27;;;;;;;;;;6234783;23;20160;-89
2022/02/11 08:28:24;;;;;;;14.97;7.50;;;;;;;;;;6234685;23;20167;-90
2022/02/11 08:31:29;;;;;;;12.07;6.40;;;;;;;;;;6231286;23;20622;-89
2022/02/11 08:34:34;;;;;;;14.70;6.00;;;;;;;;;;6232539;23;20194;-90
2022/02/11 08:37:41;;;;;;;10.67;5.73;;;;;;;;;;6233040;23;20171;-91
2022/02/11 08:40:47;;;;;;;12.17;6.07;;;;;;;;;;6230411;23;20722;-90
2022/02/11 08:43:54;;;;;;;12.80;6.00;;;;;;;;;;6231731;23;20191;-91
2022/02/11 08:47:00;;;;;;;13.30;5.80;;;;;;;;;;6232338;23;20220;-91
2022/02/11 08:50:06;;;;;;;14.33;5.20;;;;;;;;;;6235231;23;20175;-91
2022/02/11 08:53:12;;;;;;;11.00;5.47;;;;;;;;;;6233966;23;20510;-91
2022/02/11 08:56:17;;;;;;;10.30;4.83;;;;;;;;;;6231804;23;20658;-90
2022/02/11 08:59:22;;;;;;;11.30;4.93;;;;;;;;;;6233438;23;20175;-91
2022/02/11 09:02:27;;;;;;;10.13;4.97;;;;;;;;;;6231530;23;20184;-89
2022/02/11 09:05:32;;;;;;;8.67;4.70;;;;;;;;;;6231141;23;20162;-90
2022/02/11 09:08:40;;;;;;;7.73;4.30;;;;;;;;;;6230740;23;20218;-90
2022/02/11 09:11:46;;;;;;;8.17;3.87;;;;;;;;;;6234032;23;20234;-90
2022/02/11 09:14:51;;;;;;;9.33;3.97;;;;;;;;;;6231971;23;20190;-91
2022/02/11 09:18:01;;;;;;;6.77;3.40;;;;;;;;;;6232713;23;20176;-89
2022/02/11 09:21:08;;;;;;;7.30;3.80;;;;;;;;;;6234555;23;20252;-88
2022/02/11 09:24:15;;;;;;;6.60;3.10;;;;;;;;;;6235518;23;20190;-88
2022/02/11 09:27:21;;;;;;;4.03;2.23;;;;;;;;;;6233537;23;20202;-88
2022/02/11 09:30:27;;;;;;;5.37;2.50;;;;;;;;;;6234251;23;20186;-91
2022/02/11 09:33:35;;;;;;;5.87;2.57;;;;;;;;;;6233706;23;20478;-91
2022/02/11 09:36:46;;;;;;;4.43;2.50;;;;;;;;;;6235925;23;20240;-90
2022/02/11 09:40:04;;;;;;;5.60;2.57;;;;;;;;;;6234300;23;20191;-88
2022/02/11 09:43:12;;;;;;;3.80;2.00;;;;;;;;;;6231326;23;20222;-89
2022/02/11 09:46:18;;;;;;;10.17;3.30;;;;;;;;;;6233390;23;20159;-91
2022/02/11 09:49:24;;;;;;;5.20;2.20;;;;;;;;;;6232429;23;20178;-91
2022/02/11 09:52:29;;;;;;;2.70;1.30;;;;;;;;;;6230524;23;20235;-90
2022/02/11 09:55:40;;;;;;;1.30;1.13;;;;;;;;;;6233553;23;20240;-90
2022/02/11 09:58:50;;;;;;;3.13;1.73;;;;;;;;;;6232832;23;20162;-89
2022/02/11 10:01:56;;;;;;;2.30;1.30;;;;;;;;;;6233842;23;20154;-91
2022/02/11 10:05:05;;;;;;;2.40;1.50;;;;;;;;;;6234943;23;20217;-89
2022/02/11 10:08:10;;;;;;;1.60;1.07;;;;;;;;;;6233334;23;20171;-89
2022/02/11 10:11:17;;;;;;;2.23;1.13;;;;;;;;;;6229511;23;20191;-90
2022/02/11 10:14:24;;;;;;;2.50;1.17;;;;;;;;;;6230940;23;20166;-90
2022/02/11 10:17:30;;;;;;;3.17;1.03;;;;;;;;;;6232316;23;20205;-90
2022/02/11 10:21:00;;;;;;;1.23;1.10;;;;;;;;;;6234789;23;20167;-90
2022/02/11 10:24:31;;;;;;;1.37;1.00;;;;;;;;;;6231768;23;20191;-89
2022/02/11 10:27:39;;;;;;;1.23;0.90;;;;;;;;;;6231704;23;20183;-90
2022/02/11 10:30:44;;;;;;;1.77;1.17;;;;;;;;;;6233241;23;20186;-90
2022/02/11 10:33:54;;;;;;;1.70;1.10;;;;;;;;;;6231482;23;20706;-91
2022/02/11 10:37:09;;;;;;;1.60;1.10;;;;;;;;;;6235159;23;20159;-89
2022/02/11 10:40:16;;;;;;;1.80;1.13;;;;;;;;;;6234390;23;20162;-90
2022/02/11 10:43:29;;;;;;;6.50;1.13;;;;;;;;;;6234028;23;20172;-88
2022/02/11 10:46:38;;;;;;;2.40;0.97;;;;;;;;;;6235134;23;20163;-90
2022/02/11 10:49:44;;;;;;;1.50;0.93;;;;;;;;;;6233624;23;20207;-89
2022/02/11 10:52:53;;;;;;;3.57;1.20;;;;;;;;;;6232851;23;20175;-90
2022/02/11 10:55:59;;;;;;;2.87;1.20;;;;;;;;;;6231753;23;20245;-91
2022/02/11 10:59:06;;;;;;;1.40;0.90;;;;;;;;;;6233310;23;20191;-92
2022/02/11 11:02:13;;;;;;;3.80;1.30;;;;;;;;;;6233672;23;20194;-89
2022/02/11 11:05:18;;;;;;;1.80;1.30;;;;;;;;;;6231048;23;20224;-90
2022/02/11 11:08:27;;;;;;;1.73;1.20;;;;;;;;;;6233024;23;20584;-90
2022/02/11 11:11:35;;;;;;;2.20;1.40;;;;;;;;;;6234566;23;20173;-91
2022/02/11 11:14:43;;;;;;;5.37;1.50;;;;;;;;;;6235960;23;20151;-91
2022/02/11 11:17:50;;;;;;;2.87;1.60;;;;;;;;;;6233096;23;20212;-90
2022/02/11 11:20:57;;;;;;;2.90;1.60;;;;;;;;;;6231316;23;20168;-90
2022/02/11 11:24:02;;;;;;;3.20;1.43;;;;;;;;;;6233030;23;20179;-90
2022/02/11 11:27:07;;;;;;;3.50;1.40;;;;;;;;;;6231424;23;20182;-91
2022/02/11 11:30:27;;;;;;;2.50;1.60;;;;;;;;;;6233449;23;20206;-90
2022/02/11 11:33:31;;;;;;;2.37;1.47;;;;;;;;;;6232113;23;20175;-90
2022/02/11 11:36:36;;;;;;;3.87;1.83;;;;;;;;;;6234107;23;20178;-93
2022/02/11 11:39:46;;;;;;;7.67;2.43;;;;;;;;;;6231965;23;20159;-90
2022/02/11 11:43:11;;;;;;;4.77;2.00;;;;;;;;;;6233224;23;20617;-91
2022/02/11 11:46:31;;;;;;;7.97;3.00;;;;;;;;;;6230910;23;20481;-91
2022/02/11 11:49:40;;;;;;;4.70;1.90;;;;;;;;;;6230277;23;20159;-91
2022/02/11 11:52:46;;;;;;;3.27;1.57;;;;;;;;;;6230272;23;20222;-89
2022/02/11 11:55:54;;;;;;;2.60;1.47;;;;;;;;;;6231333;23;20190;-90
2022/02/11 11:59:14;;;;;;;4.93;1.57;;;;;;;;;;6233134;23;20167;-91
2022/02/11 12:02:22;;;;;;;5.30;1.37;;;;;;;;;;6231095;23;20226;-89
2022/02/11 12:05:51;;;;;;;4.63;2.00;;;;;;;;;;6233545;23;20298;-89
2022/02/11 12:08:57;;;;;;;3.77;1.73;;;;;;;;;;6235585;23;20174;-89
2022/02/11 12:12:04;;;;;;;4.70;2.07;;;;;;;;;;6238752;23;20167;-88
2022/02/11 12:15:11;;;;;;;4.30;1.90;;;;;;;;;;6232858;23;20167;-90
2022/02/11 12:18:17;;;;;;;2.53;1.50;;;;;;;;;;6234787;23;20221;-91
2022/02/11 12:21:23;;;;;;;4.93;1.80;;;;;;;;;;6231809;23;20226;-91
2022/02/11 12:27:53;;;;;;;8.33;1.80;;;;;;;;;;6231596;23;20187;-92
2022/02/11 12:31:04;;;;;;;4.40;1.63;;;;;;;;;;6230177;23;20170;-90
2022/02/11 12:34:15;;;;;;;3.47;1.80;;;;;;;;;;6231813;23;20163;-90
2022/02/11 12:37:21;;;;;;;4.17;1.93;;;;;;;;;;6233273;23;20202;-91
2022/02/11 12:40:28;;;;;;;8.33;2.37;;;;;;;;;;6232654;23;20167;-90
2022/02/11 12:43:33;;;;;;;3.83;1.70;;;;;;;;;;6231091;23;20170;-91
2022/02/11 12:46:39;;;;;;;6.33;1.67;;;;;;;;;;6230987;23;20174;-90
2022/02/11 12:50:00;;;;;;;3.20;1.50;;;;;;;;;;6232460;23;20166;-91
2022/02/11 12:53:10;;;;;;;3.87;1.60;;;;;;;;;;6233298;23;20168;-93
2022/02/11 12:56:17;;;;;;;3.40;1.50;;;;;;;;;;6233477;23;20275;-92
2022/02/11 12:59:22;;;;;;;4.17;1.67;;;;;;;;;;6231125;23;20174;-92
2022/02/11 13:02:27;;;;;;;3.97;1.53;;;;;;;;;;6232701;23;20171;-91
2022/02/11 13:05:33;;;;;;;3.30;1.30;;;;;;;;;;6231933;23;20219;-92
2022/02/11 13:08:40;;;;;;;4.10;2.00;;;;;;;;;;6228431;23;20159;-89
2022/02/11 13:11:46;;;;;;;6.93;2.13;;;;;;;;;;6230562;23;20170;-88
2022/02/11 13:15:28;;;;;;;8.63;1.93;;;;;;;;;;6230870;23;20202;-88
2022/02/11 13:18:35;;;;;;;5.00;1.50;;;;;;;;;;6229496;23;20171;-90
2022/02/11 13:21:41;;;;;;;3.63;1.33;;;;;;;;;;6229137;23;20207;-90
2022/02/11 13:24:49;;;;;;;8.77;1.63;;;;;;;;;;6230534;23;20158;-86
2022/02/11 13:27:56;;;;;;;2.93;1.40;;;;;;;;;;6228765;23;20175;-90
2022/02/11 13:31:02;;;;;;;2.63;1.20;;;;;;;;;;6227788;23;20175;-92
2022/02/11 13:34:11;;;;;;;5.03;1.50;;;;;;;;;;6229934;23;20171;-92
2022/02/11 13:37:16;;;;;;;5.93;1.63;;;;;;;;;;6230160;23;20178;-92
2022/02/11 13:40:24;;;;;;;5.13;1.80;;;;;;;;;;6228772;23;20212;-90
2022/02/11 13:43:29;;;;;;;7.47;1.87;;;;;;;;;;6230146;23;20171;-89
2022/02/11 13:46:36;;;;;;;6.00;1.90;;;;;;;;;;6228032;23;20170;-90
2022/02/11 13:49:41;;;;;;;14.20;3.40;;;;;;;;;;6227719;23;20179;-91
2022/02/11 13:53:03;;;;;;;10.07;2.20;;;;;;;;;;6229004;23;20259;-91
2022/02/11 13:56:17;;;;;;;4.40;1.63;;;;;;;;;;6225941;23;20246;-90
2022/02/11 13:59:29;;;;;;;5.07;2.10;;;;;;;;;;6231988;23;20199;-90
2022/02/11 14:02:43;;;;;;;7.53;2.17;;;;;;;;;;6230907;23;20529;-91
2022/02/11 14:05:49;;;;;;;8.90;2.07;;;;;;;;;;6233274;23;20150;-90
2022/02/11 14:08:55;;;;;;;4.27;1.73;;;;;;;;;;6231747;23;20171;-91
2022/02/11 14:12:01;;;;;;;8.47;2.53;;;;;;;;;;6229861;23;20191;-91
2022/02/11 14:15:07;;;;;;;3.70;1.47;;;;;;;;;;6230077;23;20175;-92
2022/02/11 14:18:13;;;;;;;5.50;1.80;;;;;;;;;;6230103;23;20147;-90
2022/02/11 14:21:19;;;;;;;8.67;1.60;;;;;;;;;;6230033;23;20175;-90
2022/02/11 14:24:25;;;;;;;5.93;1.73;;;;;;;;;;6230309;23;20214;-89
2022/02/11 14:27:33;;;;;;;4.37;1.40;;;;;;;;;;6229173;23;20251;-91
2022/02/11 14:30:39;;;;;;;4.87;1.60;;;;;;;;;;6228119;23;20171;-91
2022/02/11 14:33:44;;;;;;;3.07;1.43;;;;;;;;;;6227843;23;20244;-91
2022/02/11 14:36:49;;;;;;;5.43;1.80;;;;;;;;;;6229847;23;20226;-91
2022/02/11 14:39:54;;;;;;;8.80;1.73;;;;;;;;;;6227318;23;20230;-89
2022/02/11 14:43:03;;;;;;;5.17;1.77;;;;;;;;;;6227501;23;20179;-91
2022/02/11 14:46:09;;;;;;;8.23;1.83;;;;;;;;;;6229354;23;20175;-92
2022/02/11 14:49:16;;;;;;;10.87;2.87;;;;;;;;;;6229353;23;20171;-91
2022/02/11 14:52:22;;;;;;;6.97;2.20;;;;;;;;;;6230724;23;20219;-91
2022/02/11 14:55:28;;;;;;;10.70;2.20;;;;;;;;;;6228187;23;20164;-90
2022/02/11 14:58:36;;;;;;;4.20;1.43;;;;;;;;;;6228306;23;20240;-90
2022/02/11 15:01:41;;;;;;;4.17;1.20;;;;;;;;;;6228664;23;20167;-90
2022/02/11 15:04:48;;;;;;;5.00;1.40;;;;;;;;;;6229508;23;20161;-89
2022/02/11 15:07:53;;;;;;;2.73;1.37;;;;;;;;;;6230471;23;20167;-90
2022/02/11 15:10:58;;;;;;;7.20;1.80;;;;;;;;;;6230632;23;20170;-90
2022/02/11 15:14:05;;;;;;;3.40;1.50;;;;;;;;;;6229537;23;20294;-92
2022/02/11 15:17:11;;;;;;;4.47;1.60;;;;;;;;;;6229260;23;20178;-89
2022/02/11 15:20:16;;;;;;;15.63;3.93;;;;;;;;;;6230601;23;20171;-91
2022/02/11 15:26:41;;;;;;;7.40;2.00;;;;;;;;;;6232392;23;20168;-91
2022/02/11 15:29:49;;;;;;;5.73;1.60;;;;;;;;;;6229369;23;20229;-90
2022/02/11 15:32:56;;;;;;;7.60;1.87;;;;;;;;;;6232941;23;20163;-90
2022/02/11 15:36:01;;;;;;;5.57;1.70;;;;;;;;;;6232622;23;20279;-91
2022/02/11 15:39:07;;;;;;;8.13;1.80;;;;;;;;;;6230935;23;20250;-90
2022/02/11 15:42:13;;;;;;;3.60;1.30;;;;;;;;;;6230904;23;20175;-88
2022/02/11 15:45:20;;;;;;;5.67;1.53;;;;;;;;;;6231373;23;20167;-91
2022/02/11 15:48:25;;;;;;;8.73;1.80;;;;;;;;;;6229369;23;20175;-91
2022/02/11 15:51:31;;;;;;;6.93;1.30;;;;;;;;;;6227730;23;20517;-90
2022/02/11 15:54:36;;;;;;;5.47;1.70;;;;;;;;;;6231806;23;20171;-91
2022/02/11 15:57:41;;;;;;;4.73;1.60;;;;;;;;;;6231982;23;20206;-90
2022/02/11 16:00:47;;;;;;;6.07;1.40;;;;;;;;;;6231045;23;20174;-90
2022/02/11 16:03:53;;;;;;;10.70;2.40;;;;;;;;;;6233093;23;20220;-90
2022/02/11 16:06:58;;;;;;;9.97;3.20;;;;;;;;;;6233835;23;20263;-92
2022/02/11 16:10:03;;;;;;;7.17;2.57;;;;;;;;;;6231239;23;20174;-90
2022/02/11 16:13:09;;;;;;;11.73;3.47;;;;;;;;;;6229022;23;20223;-90
2022/02/11 16:16:15;;;;;;;6.83;2.53;;;;;;;;;;6227923;23;20175;-90
2022/02/11 16:19:29;;;;;;;14.53;3.87;;;;;;;;;;6229679;23;20927;-90
2022/02/11 16:22:34;;;;;;;5.70;1.50;;;;;;;;;;6229152;23;20174;-90
2022/02/11 16:25:39;;;;;;;6.70;2.00;;;;;;;;;;6230630;23;20171;-90
2022/02/11 16:28:45;;;;;;;6.00;2.10;;;;;;;;;;6233171;23;20199;-90
2022/02/11 20:21:07;;;;;;;8.27;2.10;;;;;;;;;;6193366;22;20198;-91
2022/02/11 20:27:33;;;;;;;7.83;2.53;;;;;;;;;;6249297;22;20189;-90
2022/02/11 20:30:39;;;;;;;8.90;2.30;;;;;;;;;;6248407;22;20218;-91
2022/02/11 20:33:46;;;;;;;9.50;2.27;;;;;;;;;;6248829;22;20171;-91
2022/02/11 20:36:54;;;;;;;5.97;1.87;;;;;;;;;;6247928;23;20207;-92
2022/02/11 20:40:01;;;;;;;5.47;2.17;;;;;;;;;;6247094;23;20176;-90
2022/02/11 20:43:06;;;;;;;6.40;2.33;;;;;;;;;;6248950;22;20154;-92
2022/02/11 20:46:13;;;;;;;11.60;2.93;;;;;;;;;;6248282;22;20166;-91
2022/02/11 20:49:18;;;;;;;6.77;2.30;;;;;;;;;;6248084;22;20166;-91
2022/02/11 20:52:26;;;;;;;5.47;2.10;;;;;;;;;;6246955;23;20229;-92
2022/02/11 20:55:33;;;;;;;8.80;2.30;;;;;;;;;;6248166;23;20609;-92
2022/02/11 20:58:38;;;;;;;8.23;2.30;;;;;;;;;;6249247;23;20302;-92
2022/02/11 21:01:44;;;;;;;7.57;2.13;;;;;;;;;;6250666;23;20161;-91
2022/02/11 21:04:50;;;;;;;6.53;1.87;;;;;;;;;;6248914;23;20231;-91
2022/02/11 21:07:58;;;;;;;11.37;2.47;;;;;;;;;;6247833;23;20227;-91
2022/02/11 21:11:04;;;;;;;7.10;2.00;;;;;;;;;;6246950;23;20163;-90
2022/02/11 21:14:11;;;;;;;10.57;2.30;;;;;;;;;;6245867;23;20158;-90
2022/02/11 21:17:16;;;;;;;8.20;2.60;;;;;;;;;;6246858;22;20233;-89
